Grand Island, Nebraska
Current Conditions -  °F | °C
As of 12:55 PM on Sunday 23 Nov 2014 (Local Time) from KAUH Reporting Station
Overcast Overcast  
Wind Chill: 33°   Ceiling: 9000
Heat Index: 42°   Visibility: 10mi
Dew Point: 38°   Wind: 18mph
Humidity: 87%   Direction: 340°NNW
Pressure: 29.55"   Gusts: 24mph
Location:  40.92°N, 98.34°W
Report Text: KAUH 231855Z AUTO 34016G21KT 10SM SCT065 OVC090 06/04 A2955 RMK AO2 P0001 T00550035
Loading
Personal Weather Stations






























Interactive Weather Map New forecast layout! Learn more

10-Day Weather Forecast

Advertisements
Track Severe Weather on mobile